VTSH  Songkhla Airport

Add Bookmark

Thailand

Status IATA
Operational SGZ
Latitude Longitude
7° 11' 11" N 100° 36' 28" E
7.186560 100.608002
Local (DST + 7) UTC (GMT + 7)
Sep 2, 2014 06:36 Sep 2, 2014 11:36
Sunrise-Sunset Local UTC
Begin Civil Twilight 05:47 22:47
Sunrise 06:08 23:08
Sunset 06:25 11:25
End Civil Twilight 06:46 11:46

Current Weather

METAR Observed VFR
VTSH 020800Z 00000KT 9999 FEW020CB SCT120 BKN300 27/22 Q1008 A2978 Tue, Sep 2, 2014 @ 08:00 UTC
(3 Hours, 36 Minutes ago)
Visual Flight Rules
Wind Visibility Clouds Conditions
Calm 10 km or more
  • Few at 2,000' AGL
  • Scattered at 12,000' AGL
  • Broken at 30,000' AGL
  • No significant weather
Temperatures Readings Precipitation
Current Temp 27°C (81°F)
Dewpoint 22°C (72°F)
Heat Index 29°C (85°F)
Humidity 74%
Altimeter 29.76"Hg
Sea Level Pressure 1008mb
Field Elevation 16.4'
None Recorded

Additional weather within a 92.6km radius of VTSH

Map ICAO Location
VTSS 36.9km S (220°)

24 Hour Weather History

Loading
-

24 Hour Weather Graphs

Loading
-

CheckWX.com is intended as a tool to help pilots better visualize weather data. It is not intended as a substitute for an official weather briefing obtained from a Flight Service Station. CheckWX.com does not meet the FAA requirements for an official pre-flight weather briefing. Therefore, it's important that pilots still call and obtain an official FSS pre-flight weather briefing.